createdAt,value
2022-10-22T00:02:57.877Z,96697.00
2022-10-22T00:07:58.815Z,96695.00
2022-10-22T00:12:59.593Z,96690.00
2022-10-22T00:18:00.881Z,96684.00
2022-10-22T00:23:01.627Z,96681.00
2022-10-22T00:28:04.266Z,96675.00
2022-10-22T00:33:05.116Z,96668.00
2022-10-22T00:38:05.910Z,96659.00
2022-10-22T00:43:13.566Z,96650.00
2022-10-22T00:48:21.385Z,96644.00
2022-10-22T00:53:26.202Z,96643.00
2022-10-22T00:58:31.986Z,96650.00
2022-10-22T01:03:33.132Z,96663.00
2022-10-22T01:09:32.764Z,96671.00
2022-10-22T01:15:42.862Z,96679.00
2022-10-22T01:21:13.385Z,96674.00
2022-10-22T01:28:55.398Z,96683.00
2022-10-22T01:33:58.937Z,96674.00
2022-10-22T01:39:01.622Z,96686.00
2022-10-22T01:44:02.473Z,96693.00
2022-10-22T01:49:33.129Z,96695.00
2022-10-22T01:54:51.194Z,96693.00
2022-10-22T02:00:14.244Z,96687.00
2022-10-22T02:05:26.776Z,96678.00
2022-10-22T02:10:29.807Z,96692.00
2022-10-22T02:15:32.536Z,96707.00
2022-10-22T02:20:35.473Z,96684.00
2022-10-22T02:25:40.070Z,96682.00
2022-10-22T02:30:46.225Z,96686.00
2022-10-22T02:35:49.320Z,96671.00
2022-10-22T02:40:50.312Z,96678.00
2022-10-22T02:45:51.268Z,96667.00
2022-10-22T02:50:52.074Z,96669.00
2022-10-22T02:55:52.891Z,96679.00
2022-10-22T03:00:53.658Z,96685.00
2022-10-22T03:05:54.609Z,96675.00
2022-10-22T03:10:55.667Z,96676.00
2022-10-22T03:15:56.482Z,96677.00
2022-10-22T03:22:32.201Z,96673.00
2022-10-22T03:27:36.132Z,96687.00
2022-10-22T03:32:37.041Z,96696.00
2022-10-22T03:37:39.473Z,96712.00
2022-10-22T03:42:41.293Z,96725.00
2022-10-22T03:47:42.552Z,96733.00
2022-10-22T03:52:43.514Z,96737.00
2022-10-22T03:57:44.294Z,96728.00
2022-10-22T04:02:45.036Z,96728.00
2022-10-22T04:07:46.128Z,96748.00
2022-10-22T04:12:47.706Z,96755.00
2022-10-22T04:17:48.516Z,96757.00
2022-10-22T04:22:49.306Z,96773.00
2022-10-22T04:27:50.080Z,96775.00
2022-10-22T04:32:50.829Z,96778.00
2022-10-22T04:37:52.132Z,96793.00
2022-10-22T04:42:52.909Z,96800.00
2022-10-22T04:47:53.701Z,96804.00
2022-10-22T04:52:54.791Z,96813.00
2022-10-22T04:57:55.563Z,96805.00
2022-10-22T05:02:56.293Z,96803.00
2022-10-22T05:07:57.228Z,96810.00
2022-10-22T05:12:58.141Z,96813.00
2022-10-22T05:17:59.000Z,96820.00
2022-10-22T05:22:59.771Z,96823.00
2022-10-22T05:28:01.046Z,96816.00
2022-10-22T05:33:01.838Z,96823.00
2022-10-22T05:38:02.801Z,96817.00
2022-10-22T05:43:03.568Z,96820.00
2022-10-22T05:48:04.689Z,96836.00
2022-10-22T05:53:05.466Z,96845.00
2022-10-22T05:58:06.282Z,96839.00
2022-10-22T06:03:07.045Z,96845.00
2022-10-22T06:08:16.755Z,96850.00
2022-10-22T06:13:19.953Z,96854.00
2022-10-22T06:18:20.680Z,96857.00
2022-10-22T06:23:21.588Z,96874.00
2022-10-22T06:28:25.393Z,96894.00
2022-10-22T06:33:27.264Z,96905.00
2022-10-22T06:38:28.080Z,96900.00
2022-10-22T06:43:29.270Z,96897.00
2022-10-22T06:48:30.551Z,96908.00
2022-10-22T06:53:31.347Z,96923.00
2022-10-22T06:58:32.076Z,96937.00
2022-10-22T07:03:33.628Z,96934.00
2022-10-22T07:08:35.100Z,96949.00
2022-10-22T07:13:36.028Z,96956.00
2022-10-22T07:18:38.421Z,96961.00
2022-10-22T07:23:39.367Z,96952.00
2022-10-22T07:28:41.080Z,96964.00
2022-10-22T07:33:41.881Z,96971.00
2022-10-22T07:38:47.863Z,96977.00
2022-10-22T07:43:48.890Z,96988.00
2022-10-22T07:48:49.983Z,96985.00
2022-10-22T07:53:50.849Z,96997.00
2022-10-22T07:58:51.655Z,97007.00
2022-10-22T08:03:53.261Z,97007.00
2022-10-22T08:08:54.311Z,97013.00
2022-10-22T08:13:55.128Z,97019.00
2022-10-22T08:18:55.986Z,97027.00
2022-10-22T08:23:56.937Z,97035.00
2022-10-22T08:28:57.808Z,97036.00
2022-10-22T08:33:58.595Z,97031.00
2022-10-22T08:38:59.478Z,97042.00
2022-10-22T08:45:12.848Z,97041.00
2022-10-22T08:50:19.340Z,97046.00
2022-10-22T08:55:23.929Z,97043.00
2022-10-22T09:01:55.774Z,97054.00
2022-10-22T09:06:58.571Z,97062.00
2022-10-22T09:12:00.343Z,97060.00
2022-10-22T09:17:34.707Z,97067.00
2022-10-22T09:25:31.881Z,97072.00
2022-10-22T09:30:35.416Z,97076.00
2022-10-22T09:35:51.104Z,97092.00
2022-10-22T09:40:54.380Z,97084.00
2022-10-22T09:45:58.660Z,97088.00
2022-10-22T09:51:21.888Z,97086.00
2022-10-22T09:56:34.703Z,97094.00
2022-10-22T10:01:37.951Z,97091.00
2022-10-22T10:06:41.465Z,97101.00
2022-10-22T10:11:48.457Z,97104.00
2022-10-22T10:17:31.181Z,97116.00
2022-10-22T10:27:40.560Z,97106.00
2022-10-22T10:35:04.873Z,97114.00
2022-10-22T10:40:47.740Z,97109.00
2022-10-22T10:46:11.329Z,97110.00
2022-10-22T10:52:56.359Z,97112.00
2022-10-22T10:58:25.300Z,97123.00
2022-10-22T11:03:38.949Z,97108.00
2022-10-22T11:08:53.879Z,97108.00
2022-10-22T11:14:10.938Z,97106.00
2022-10-22T11:19:50.180Z,97106.00
2022-10-22T11:31:43.748Z,97112.00
2022-10-22T11:36:46.466Z,97117.00
2022-10-22T11:41:47.785Z,97114.00
2022-10-22T11:47:26.023Z,97109.00
2022-10-22T11:53:04.805Z,97104.00
2022-10-22T11:58:43.005Z,97100.00
2022-10-22T12:04:33.143Z,97099.00
2022-10-22T12:09:40.270Z,97095.00
2022-10-22T12:15:00.198Z,97099.00
2022-10-22T12:20:10.879Z,97087.00
2022-10-22T12:25:20.657Z,97085.00
2022-10-22T12:30:27.652Z,97088.00
2022-10-22T12:35:43.569Z,97095.00
2022-10-22T12:40:47.574Z,97101.00
2022-10-22T12:45:50.503Z,97098.00
2022-10-22T12:50:57.893Z,97109.00
2022-10-22T12:56:05.145Z,97116.00
2022-10-22T13:01:06.515Z,97104.00
2022-10-22T13:06:23.112Z,97111.00
2022-10-22T13:11:32.000Z,97118.00
2022-10-22T13:16:32.773Z,97120.00
2022-10-22T13:21:38.074Z,97119.00
2022-10-22T13:26:38.839Z,97114.00
2022-10-22T13:31:45.845Z,97112.00
2022-10-22T13:36:47.785Z,97110.00
2022-10-22T13:41:49.755Z,97113.00
2022-10-22T13:46:50.544Z,97115.00
2022-10-22T13:51:52.141Z,97098.00
2022-10-22T13:56:52.873Z,97103.00
2022-10-22T14:01:55.444Z,97104.00
2022-10-22T14:06:57.779Z,97097.00
2022-10-22T14:12:01.002Z,97107.00
2022-10-22T14:17:01.747Z,97102.00
2022-10-22T14:22:02.513Z,97098.00
2022-10-22T14:27:03.250Z,97096.00
2022-10-22T14:32:16.440Z,97104.00
2022-10-22T14:37:19.541Z,97101.00
2022-10-22T14:42:20.287Z,97106.00
2022-10-22T14:47:21.031Z,97103.00
2022-10-22T14:52:21.771Z,97100.00
2022-10-22T14:57:22.557Z,97113.00
2022-10-22T15:02:23.471Z,97112.00
2022-10-22T15:07:24.624Z,97113.00
2022-10-22T15:12:25.387Z,97108.00
2022-10-22T15:17:26.253Z,97115.00
2022-10-22T15:22:27.807Z,97112.00
2022-10-22T15:27:30.011Z,97112.00
2022-10-22T15:32:32.825Z,97106.00
2022-10-22T15:37:33.538Z,97115.00
2022-10-22T15:42:34.397Z,97121.00
2022-10-22T15:47:35.121Z,97118.00
2022-10-22T15:52:35.963Z,97115.00
2022-10-22T15:57:37.787Z,97116.00
2022-10-22T16:02:39.101Z,97120.00
2022-10-22T16:07:40.543Z,97125.00
2022-10-22T16:12:42.523Z,97130.00
2022-10-22T16:17:43.516Z,97123.00
2022-10-22T16:22:44.336Z,97123.00
2022-10-22T16:27:49.148Z,97126.00
2022-10-22T16:32:52.026Z,97132.00
2022-10-22T16:37:52.810Z,97126.00
2022-10-22T16:42:53.740Z,97135.00
2022-10-22T16:47:54.534Z,97145.00
2022-10-22T16:52:55.325Z,97147.00
2022-10-22T16:57:56.081Z,97146.00
2022-10-22T17:02:57.242Z,97160.00
2022-10-22T17:07:57.976Z,97154.00
2022-10-22T17:12:59.087Z,97154.00
2022-10-22T17:17:59.989Z,97167.00
2022-10-22T17:23:00.865Z,97165.00
2022-10-22T17:28:01.593Z,97171.00
2022-10-22T17:33:02.452Z,97171.00
2022-10-22T17:38:03.194Z,97174.00
2022-10-22T17:43:04.161Z,97185.00
2022-10-22T17:48:05.157Z,97188.00
2022-10-22T17:53:05.944Z,97202.00
2022-10-22T17:58:06.691Z,97195.00
2022-10-22T18:03:08.140Z,97197.00
2022-10-22T18:08:08.880Z,97198.00
2022-10-22T18:13:09.853Z,97201.00
2022-10-22T18:18:10.601Z,97190.00
2022-10-22T18:23:12.711Z,97184.00
2022-10-22T18:28:18.488Z,97184.00
2022-10-22T18:33:23.224Z,97177.00
2022-10-22T18:38:24.049Z,97191.00
2022-10-22T18:43:25.254Z,97192.00
2022-10-22T18:48:26.511Z,97185.00
2022-10-22T18:53:28.265Z,97181.00
2022-10-22T18:58:29.012Z,97181.00
2022-10-22T19:03:29.926Z,97182.00
2022-10-22T19:08:31.115Z,97177.00
2022-10-22T19:13:32.163Z,97187.00
2022-10-22T19:18:35.095Z,97184.00
2022-10-22T19:23:36.052Z,97178.00
2022-10-22T19:28:38.167Z,97179.00
2022-10-22T19:33:39.250Z,97179.00
2022-10-22T19:38:42.311Z,97179.00
2022-10-22T19:43:43.893Z,97170.00
2022-10-22T19:53:46.976Z,97160.00
2022-10-22T19:58:47.734Z,97165.00
2022-10-22T20:03:48.705Z,97166.00
2022-10-22T20:08:52.353Z,97165.00
2022-10-22T20:13:57.836Z,97184.00
2022-10-22T20:19:01.285Z,97177.00
2022-10-22T20:24:02.312Z,97172.00
2022-10-22T20:29:03.101Z,97168.00
2022-10-22T20:34:04.142Z,97168.00
2022-10-22T20:39:07.781Z,97175.00
2022-10-22T20:44:15.468Z,97188.00
2022-10-22T20:49:19.809Z,97181.00
2022-10-22T20:54:20.596Z,97181.00
2022-10-22T20:59:21.661Z,97179.00
2022-10-22T21:04:22.858Z,97165.00
2022-10-22T21:09:24.422Z,97166.00
2022-10-22T21:14:25.563Z,97166.00
2022-10-22T21:19:26.361Z,97177.00
2022-10-22T21:24:27.158Z,97167.00
2022-10-22T21:29:28.052Z,97165.00
2022-10-22T21:34:28.980Z,97176.00
2022-10-22T21:39:29.751Z,97173.00
2022-10-22T21:44:30.551Z,97186.00
2022-10-22T21:49:31.399Z,97175.00
2022-10-22T21:54:32.488Z,97172.00
2022-10-22T21:59:35.189Z,97175.00
2022-10-22T22:04:36.323Z,97178.00
2022-10-22T22:09:37.147Z,97177.00
2022-10-22T22:14:37.873Z,97173.00
2022-10-22T22:19:39.399Z,97172.00
2022-10-22T22:24:40.179Z,97164.00
2022-10-22T22:29:40.971Z,97158.00
2022-10-22T22:34:41.916Z,97166.00
2022-10-22T22:39:42.659Z,97154.00
2022-10-22T22:44:43.651Z,97152.00
2022-10-22T22:49:44.414Z,97143.00
2022-10-22T22:54:47.220Z,97143.00
2022-10-22T22:59:50.958Z,97130.00
2022-10-22T23:04:51.790Z,97144.00
2022-10-22T23:09:52.581Z,97136.00
2022-10-22T23:14:53.327Z,97136.00
2022-10-22T23:19:54.421Z,97133.00
2022-10-22T23:24:55.224Z,97132.00
2022-10-22T23:29:56.009Z,97130.00
2022-10-22T23:34:57.096Z,97125.00
2022-10-22T23:39:57.920Z,97143.00
2022-10-22T23:44:58.711Z,97137.00
2022-10-22T23:49:59.459Z,97133.00
2022-10-22T23:55:00.205Z,97128.00
